createdAt,value
2019-04-27T00:04:44.453Z,100.00
2019-04-27T00:07:33.672Z,100.00
2019-04-27T00:18:45.506Z,100.00
2019-04-27T00:21:47.776Z,100.00
2019-04-27T00:24:17.110Z,100.00
2019-04-27T00:26:46.448Z,100.00
2019-04-27T00:29:15.780Z,100.00
2019-04-27T00:31:45.098Z,100.00
2019-04-27T00:34:15.094Z,100.00
2019-04-27T00:37:09.988Z,100.00
2019-04-27T00:39:58.426Z,100.00
2019-04-27T00:42:40.399Z,100.00
2019-04-27T00:45:23.444Z,100.00
2019-04-27T00:47:58.988Z,100.00
2019-04-27T00:51:04.127Z,100.00
2019-04-27T00:53:51.111Z,100.00
2019-04-27T00:56:39.556Z,100.00
2019-04-27T00:59:28.238Z,100.00
2019-04-27T01:02:16.687Z,100.00
2019-04-27T01:04:46.085Z,100.00
2019-04-27T01:07:15.412Z,100.00
2019-04-27T01:12:59.548Z,100.00
2019-04-27T01:18:30.321Z,100.00
2019-04-27T01:20:59.954Z,100.00
2019-04-27T01:23:29.448Z,100.00
2019-04-27T01:26:25.025Z,100.00
2019-04-27T01:29:13.466Z,100.00
2019-04-27T01:31:42.879Z,100.00
2019-04-27T01:34:12.209Z,100.00
2019-04-27T01:36:41.539Z,100.00
2019-04-27T01:41:49.972Z,100.00
2019-04-27T01:44:19.569Z,100.00
2019-04-27T01:46:48.903Z,100.00
2019-04-27T01:49:19.420Z,100.00
2019-04-27T01:52:09.634Z,100.00
2019-04-27T01:54:44.849Z,100.00
2019-04-27T01:59:54.691Z,100.00
2019-04-27T02:02:43.132Z,100.00
2019-04-27T02:05:31.683Z,100.00
2019-04-27T02:10:57.209Z,100.00
2019-04-27T02:13:26.541Z,100.00
2019-04-27T02:15:55.871Z,100.00
2019-04-27T02:18:36.909Z,100.00
2019-04-27T02:21:15.330Z,100.00
2019-04-27T02:23:44.670Z,100.00
2019-04-27T02:26:33.333Z,100.00
2019-04-27T02:34:59.919Z,100.00
2019-04-27T02:37:50.072Z,100.00
2019-04-27T02:41:10.066Z,100.00
2019-04-27T02:44:03.431Z,100.00
2019-04-27T02:46:32.780Z,100.00
2019-04-27T02:49:06.217Z,100.00
2019-04-27T02:51:59.500Z,100.00
2019-04-27T02:54:34.859Z,100.00
2019-04-27T02:57:04.195Z,100.00
2019-04-27T02:59:33.593Z,100.00
2019-04-27T03:04:42.168Z,100.00
2019-04-27T03:07:11.718Z,100.00
2019-04-27T03:10:13.691Z,100.00
2019-04-27T03:15:57.476Z,100.00
2019-04-27T03:18:45.913Z,100.00
2019-04-27T03:21:34.367Z,100.00
2019-04-27T03:24:03.689Z,100.00
2019-04-27T03:29:30.644Z,100.00
2019-04-27T03:32:05.089Z,100.00
2019-04-27T03:34:34.506Z,100.00
2019-04-27T03:37:03.963Z,100.00
2019-04-27T03:39:33.360Z,100.00
2019-04-27T03:42:02.977Z,100.00
2019-04-27T03:44:32.301Z,100.00
2019-04-27T03:47:14.274Z,100.00
2019-04-27T03:52:59.941Z,100.00
2019-04-27T03:55:53.697Z,100.00
2019-04-27T03:59:01.570Z,100.00
2019-04-27T04:01:30.885Z,100.00
2019-04-27T04:04:00.221Z,100.00
2019-04-27T04:07:09.686Z,100.00
2019-04-27T04:13:07.163Z,100.00
2019-04-27T04:15:55.607Z,100.00
2019-04-27T04:21:05.218Z,100.00
2019-04-27T04:23:53.639Z,100.00
2019-04-27T04:26:22.975Z,100.00
2019-04-27T04:28:52.294Z,100.00
2019-04-27T04:31:21.639Z,100.00
2019-04-27T04:33:50.969Z,100.00
2019-04-27T04:36:32.852Z,100.00
2019-04-27T04:39:02.361Z,100.00
2019-04-27T04:41:51.170Z,100.00
2019-04-27T04:44:40.180Z,100.00
2019-04-27T04:47:30.569Z,100.00
2019-04-27T04:50:45.535Z,100.00
2019-04-27T04:53:14.878Z,100.00
2019-04-27T04:55:44.185Z,100.00
2019-04-27T04:58:13.526Z,100.00
2019-04-27T05:00:42.843Z,100.00
2019-04-27T05:03:12.165Z,100.00
2019-04-27T05:05:41.509Z,100.00
2019-04-27T05:08:10.836Z,100.00
2019-04-27T05:10:40.154Z,100.00
2019-04-27T05:13:21.897Z,100.00
2019-04-27T05:15:51.453Z,100.00
2019-04-27T05:18:20.780Z,100.00
2019-04-27T05:21:09.225Z,100.00
2019-04-27T05:23:38.864Z,100.00
2019-04-27T05:26:14.773Z,100.00
2019-04-27T05:28:44.093Z,100.00
2019-04-27T05:31:13.419Z,100.00
2019-04-27T05:33:42.755Z,100.00
2019-04-27T05:36:12.356Z,100.00
2019-04-27T05:38:45.983Z,100.00
2019-04-27T05:41:18.784Z,100.00
2019-04-27T05:47:13.432Z,100.00
2019-04-27T05:52:42.897Z,100.00
2019-04-27T05:55:12.226Z,100.00
2019-04-27T05:57:41.553Z,100.00
2019-04-27T06:03:08.988Z,100.00
2019-04-27T06:05:43.448Z,100.00
2019-04-27T06:08:12.853Z,100.00
2019-04-27T06:10:42.180Z,100.00
2019-04-27T06:13:11.511Z,100.00
2019-04-27T06:15:40.840Z,99.93
2019-04-27T06:18:10.159Z,98.00
2019-04-27T06:20:51.088Z,100.00
2019-04-27T06:23:55.564Z,100.00
2019-04-27T06:29:59.338Z,97.88
2019-04-27T06:32:34.971Z,100.00
2019-04-27T06:38:06.104Z,96.45
2019-04-27T06:40:35.599Z,97.51
2019-04-27T06:46:08.726Z,97.91
2019-04-27T06:48:57.094Z,98.51
2019-04-27T06:51:31.911Z,94.24
2019-04-27T06:54:01.236Z,95.36
2019-04-27T06:56:30.562Z,94.57
2019-04-27T06:58:59.893Z,92.27
2019-04-27T07:01:29.971Z,95.98
2019-04-27T07:04:10.927Z,94.95
2019-04-27T07:07:05.143Z,92.85
2019-04-27T07:09:34.484Z,92.85
2019-04-27T07:12:03.802Z,94.48
2019-04-27T07:14:33.133Z,86.11
2019-04-27T07:17:02.537Z,90.76
2019-04-27T07:19:31.865Z,87.06
2019-04-27T07:22:13.327Z,83.01
2019-04-27T07:24:42.651Z,84.70
2019-04-27T07:27:31.329Z,88.11
2019-04-27T07:30:01.759Z,88.11
2019-04-27T07:32:56.529Z,85.15
2019-04-27T07:35:25.860Z,85.15
2019-04-27T07:37:55.190Z,83.45
2019-04-27T07:40:24.531Z,83.45
2019-04-27T07:46:08.967Z,83.15
2019-04-27T07:48:50.953Z,85.36
2019-04-27T07:51:31.532Z,85.36
2019-04-27T07:54:15.957Z,80.02
2019-04-27T07:56:45.389Z,80.02
2019-04-27T07:59:14.714Z,82.24
2019-04-27T08:01:44.042Z,82.64
2019-04-27T08:04:13.389Z,85.22
2019-04-27T08:06:42.712Z,86.81
2019-04-27T08:09:12.034Z,81.17
2019-04-27T08:11:41.373Z,84.11
2019-04-27T08:14:10.698Z,86.30
2019-04-27T08:16:52.382Z,80.20
2019-04-27T08:19:21.700Z,80.20
2019-04-27T08:22:10.386Z,82.13
2019-04-27T08:24:51.886Z,80.98
2019-04-27T08:27:40.344Z,76.83
2019-04-27T08:33:49.933Z,76.47
2019-04-27T08:36:31.103Z,76.09
2019-04-27T08:39:00.434Z,76.09
2019-04-27T08:41:29.754Z,76.82
2019-04-27T08:43:59.083Z,72.88
2019-04-27T08:46:28.712Z,78.40
2019-04-27T08:49:04.789Z,78.19
2019-04-27T08:51:34.126Z,78.19
2019-04-27T08:54:15.821Z,78.71
2019-04-27T08:56:45.294Z,78.71
2019-04-27T08:59:14.621Z,80.03
2019-04-27T09:01:43.940Z,82.57
2019-04-27T09:04:13.303Z,80.82
2019-04-27T09:07:00.498Z,82.67
2019-04-27T09:10:01.380Z,84.85
2019-04-27T09:12:53.559Z,84.85
2019-04-27T09:16:11.146Z,88.95
2019-04-27T09:18:54.720Z,89.39
2019-04-27T09:21:24.048Z,89.39
2019-04-27T09:23:53.369Z,92.98
2019-04-27T09:26:22.773Z,87.84
2019-04-27T09:29:11.444Z,94.28
2019-04-27T09:31:40.781Z,94.28
2019-04-27T09:34:10.591Z,91.42
2019-04-27T09:36:58.481Z,92.20
2019-04-27T09:39:27.810Z,85.67
2019-04-27T09:41:57.349Z,85.67
2019-04-27T09:44:26.792Z,87.95
2019-04-27T09:46:56.222Z,90.64
2019-04-27T09:49:26.311Z,91.77
2019-04-27T09:52:24.411Z,92.89
2019-04-27T09:54:56.147Z,91.23
2019-04-27T09:57:25.934Z,91.48
2019-04-27T10:03:17.139Z,98.26
2019-04-27T10:05:46.471Z,96.76
2019-04-27T10:08:16.958Z,96.80
2019-04-27T10:10:52.419Z,94.54
2019-04-27T10:13:21.761Z,92.95
2019-04-27T10:15:51.068Z,90.77
2019-04-27T10:18:20.399Z,89.06
2019-04-27T10:20:59.193Z,94.07
2019-04-27T10:23:38.434Z,97.93
2019-04-27T10:26:07.781Z,100.00
2019-04-27T10:28:37.354Z,100.00
2019-04-27T10:31:13.408Z,100.00
2019-04-27T10:33:42.730Z,100.00
2019-04-27T10:36:12.066Z,100.00
2019-04-27T10:38:41.394Z,100.00
2019-04-27T10:41:23.287Z,99.26
2019-04-27T10:43:52.623Z,99.26
2019-04-27T10:46:41.280Z,96.91
2019-04-27T10:49:23.346Z,94.54
2019-04-27T10:51:52.666Z,94.54
2019-04-27T10:54:21.991Z,91.08
2019-04-27T10:56:51.627Z,92.20
2019-04-27T11:03:06.878Z,86.99
2019-04-27T11:05:56.982Z,89.09
2019-04-27T11:08:32.066Z,89.09
2019-04-27T11:11:01.433Z,83.25
2019-04-27T11:13:30.845Z,85.54
2019-04-27T11:16:00.179Z,83.95
2019-04-27T11:18:29.507Z,83.22
2019-04-27T11:20:58.835Z,85.22
2019-04-27T11:23:28.158Z,85.22
2019-04-27T11:25:57.485Z,79.57
2019-04-27T11:28:26.813Z,81.05
2019-04-27T11:30:56.138Z,79.41
2019-04-27T11:33:26.330Z,79.12
2019-04-27T11:36:55.468Z,72.54
2019-04-27T11:42:20.202Z,76.46
2019-04-27T11:44:49.810Z,71.30
2019-04-27T11:47:19.141Z,79.10
2019-04-27T11:53:19.883Z,72.89
2019-04-27T11:56:27.294Z,71.82
2019-04-27T11:59:24.572Z,69.12
2019-04-27T12:01:55.816Z,68.56
2019-04-27T12:04:33.983Z,67.36
2019-04-27T12:07:03.379Z,67.64
2019-04-27T12:09:32.698Z,67.64
2019-04-27T12:12:12.514Z,68.47
2019-04-27T12:14:52.397Z,71.99
2019-04-27T12:17:41.072Z,72.07
2019-04-27T12:20:10.543Z,72.07
2019-04-27T12:22:59.213Z,71.63
2019-04-27T12:25:28.533Z,71.63
2019-04-27T12:31:26.210Z,68.19
2019-04-27T12:33:56.084Z,68.19
2019-04-27T12:36:53.316Z,69.80
2019-04-27T12:39:28.134Z,69.80
2019-04-27T12:42:16.861Z,66.64
2019-04-27T12:44:58.164Z,66.34
2019-04-27T12:47:27.548Z,66.34
2019-04-27T12:50:08.620Z,63.07
2019-04-27T12:52:51.567Z,70.25
2019-04-27T12:55:51.748Z,69.43
2019-04-27T12:58:40.190Z,69.43
2019-04-27T13:01:28.646Z,72.03
2019-04-27T13:03:59.249Z,74.64
2019-04-27T13:06:35.797Z,70.20
2019-04-27T13:09:11.122Z,65.43
2019-04-27T13:11:40.451Z,68.99
2019-04-27T13:14:09.774Z,65.87
2019-04-27T13:16:39.100Z,71.28
2019-04-27T13:19:08.432Z,70.18
2019-04-27T13:21:37.754Z,69.42
2019-04-27T13:24:07.179Z,66.83
2019-04-27T13:26:38.131Z,67.67
2019-04-27T13:29:25.745Z,66.62
2019-04-27T13:31:55.710Z,63.40
2019-04-27T13:34:31.607Z,66.78
2019-04-27T13:40:50.034Z,67.26
2019-04-27T13:43:38.529Z,68.59
2019-04-27T13:46:47.788Z,68.95
2019-04-27T13:49:47.954Z,68.06
2019-04-27T13:54:58.575Z,70.91
2019-04-27T13:57:50.528Z,69.61
2019-04-27T14:00:37.861Z,70.09
2019-04-27T14:03:37.376Z,67.33
2019-04-27T14:06:19.490Z,66.59
2019-04-27T14:08:49.052Z,66.59
2019-04-27T14:11:18.464Z,64.23
2019-04-27T14:14:00.269Z,66.62
2019-04-27T14:16:29.661Z,66.62
2019-04-27T14:19:18.918Z,68.03
2019-04-27T14:22:20.757Z,68.63
2019-04-27T14:25:02.975Z,70.57
2019-04-27T14:30:48.684Z,71.57
2019-04-27T14:33:23.463Z,71.57
2019-04-27T14:35:52.800Z,74.27
2019-04-27T14:38:22.192Z,77.76
2019-04-27T14:40:51.513Z,79.27
2019-04-27T14:43:33.194Z,84.26
2019-04-27T14:46:02.585Z,84.26
2019-04-27T14:48:31.912Z,100.00
2019-04-27T14:51:01.335Z,100.00
2019-04-27T14:53:30.906Z,100.00
2019-04-27T14:56:00.496Z,100.00
2019-04-27T14:58:29.906Z,100.00
2019-04-27T15:00:59.226Z,100.00
2019-04-27T15:03:28.558Z,100.00
2019-04-27T15:05:58.044Z,100.00
2019-04-27T15:08:27.388Z,100.00
2019-04-27T15:10:56.777Z,100.00
2019-04-27T15:13:26.117Z,100.00
2019-04-27T15:15:55.489Z,100.00
2019-04-27T15:21:20.447Z,100.00
2019-04-27T15:23:49.723Z,100.00
2019-04-27T15:26:21.854Z,100.00
2019-04-27T15:28:51.931Z,100.00
2019-04-27T15:31:26.919Z,100.00
2019-04-27T15:34:11.258Z,100.00
2019-04-27T15:36:48.126Z,100.00
2019-04-27T15:39:22.576Z,100.00
2019-04-27T15:41:52.134Z,98.81
2019-04-27T15:44:21.473Z,100.00
2019-04-27T15:46:50.805Z,100.00
2019-04-27T15:49:20.193Z,100.00
2019-04-27T15:51:50.656Z,100.00
2019-04-27T15:54:22.405Z,100.00
2019-04-27T15:56:52.456Z,100.00
2019-04-27T15:59:23.423Z,100.00
2019-04-27T16:01:53.105Z,80.95
2019-04-27T16:04:22.443Z,76.16
2019-04-27T16:06:52.110Z,77.30
2019-04-27T16:09:25.555Z,87.50
2019-04-27T16:11:58.347Z,87.47
2019-04-27T16:14:24.721Z,79.24
2019-04-27T16:16:54.040Z,90.61
2019-04-27T16:19:23.369Z,82.40
2019-04-27T16:21:54.221Z,90.86
2019-04-27T16:24:23.899Z,84.31
2019-04-27T16:26:56.012Z,91.30
2019-04-27T16:29:28.089Z,84.04
2019-04-27T16:31:55.354Z,80.50
2019-04-27T16:34:24.658Z,85.45
2019-04-27T16:36:53.976Z,92.28
2019-04-27T16:39:23.308Z,81.24
2019-04-27T16:41:52.642Z,74.42
2019-04-27T16:44:22.034Z,83.14
2019-04-27T16:46:51.679Z,89.27
2019-04-27T16:49:21.195Z,88.71
2019-04-27T16:51:50.785Z,78.70
2019-04-27T16:54:22.274Z,87.83
2019-04-27T16:56:58.235Z,93.76
2019-04-27T16:59:44.176Z,78.24
2019-04-27T17:01:53.763Z,89.04
2019-04-27T17:04:23.087Z,74.91
2019-04-27T17:06:53.552Z,78.41
2019-04-27T17:09:22.892Z,90.14
2019-04-27T17:11:52.246Z,83.83
2019-04-27T17:14:38.692Z,84.97
2019-04-27T17:17:25.056Z,80.84
2019-04-27T17:19:56.026Z,83.09
2019-04-27T17:22:25.346Z,73.65
2019-04-27T17:24:54.676Z,75.44
2019-04-27T17:27:40.742Z,73.84
2019-04-27T17:30:10.311Z,78.21
2019-04-27T17:32:51.085Z,72.92
2019-04-27T17:35:20.464Z,74.33
2019-04-27T17:37:49.795Z,73.55
2019-04-27T17:40:19.110Z,82.86
2019-04-27T17:42:49.385Z,78.27
2019-04-27T17:45:21.371Z,77.63
2019-04-27T17:47:49.736Z,81.86
2019-04-27T17:50:24.933Z,76.03
2019-04-27T17:52:54.863Z,85.71
2019-04-27T17:55:24.240Z,94.92
2019-04-27T17:57:52.284Z,100.00
2019-04-27T18:00:22.214Z,100.00
2019-04-27T18:02:51.547Z,100.00
2019-04-27T18:05:20.878Z,100.00
2019-04-27T18:07:50.201Z,100.00
2019-04-27T18:10:23.870Z,100.00
2019-04-27T18:12:50.581Z,100.00
2019-04-27T18:15:19.917Z,100.00
2019-04-27T18:17:52.145Z,100.00
2019-04-27T18:20:25.954Z,100.00
2019-04-27T18:23:15.245Z,100.00
2019-04-27T18:25:51.476Z,100.00
2019-04-27T18:28:22.439Z,100.00
2019-04-27T18:30:59.607Z,100.00
2019-04-27T18:33:32.658Z,100.00
2019-04-27T18:36:05.377Z,100.00
2019-04-27T18:38:35.586Z,100.00
2019-04-27T18:41:02.987Z,100.00
2019-04-27T18:43:33.839Z,100.00
2019-04-27T18:46:03.183Z,100.00
2019-04-27T18:48:44.913Z,100.00
2019-04-27T18:51:15.815Z,100.00
2019-04-27T18:53:45.473Z,100.00
2019-04-27T18:56:14.806Z,100.00
2019-04-27T18:58:44.144Z,100.00
2019-04-27T19:01:13.464Z,100.00
2019-04-27T19:03:42.786Z,100.00
2019-04-27T19:06:12.293Z,100.00
2019-04-27T19:08:41.611Z,100.00
2019-04-27T19:11:11.018Z,100.00
2019-04-27T19:13:40.593Z,100.00
2019-04-27T19:16:09.992Z,100.00
2019-04-27T19:18:39.904Z,100.00
2019-04-27T19:21:10.392Z,100.00
2019-04-27T19:23:40.490Z,100.00
2019-04-27T19:26:14.801Z,100.00
2019-04-27T19:28:58.437Z,100.00
2019-04-27T19:31:32.026Z,100.00
2019-04-27T19:34:01.367Z,100.00
2019-04-27T19:36:31.233Z,100.00
2019-04-27T19:39:00.562Z,100.00
2019-04-27T19:41:29.989Z,100.00
2019-04-27T19:43:59.860Z,100.00
2019-04-27T19:46:30.529Z,100.00
2019-04-27T19:49:00.183Z,100.00
2019-04-27T19:51:29.585Z,100.00
2019-04-27T19:53:58.990Z,100.00
2019-04-27T19:56:28.499Z,100.00
2019-04-27T19:58:59.481Z,100.00
2019-04-27T20:01:36.557Z,100.00
2019-04-27T20:04:18.628Z,100.00
2019-04-27T20:06:48.530Z,100.00
2019-04-27T20:09:23.881Z,100.00
2019-04-27T20:11:53.387Z,100.00
2019-04-27T20:14:22.711Z,100.00
2019-04-27T20:16:52.091Z,100.00
2019-04-27T20:19:21.633Z,100.00
2019-04-27T20:21:50.988Z,100.00
2019-04-27T20:24:20.334Z,100.00
2019-04-27T20:26:49.797Z,100.00
2019-04-27T20:29:19.117Z,100.00
2019-04-27T20:31:48.518Z,100.00
2019-04-27T20:34:17.863Z,100.00
2019-04-27T20:36:47.187Z,100.00
2019-04-27T20:39:16.574Z,100.00
2019-04-27T20:41:45.975Z,100.00
2019-04-27T20:44:15.297Z,100.00
2019-04-27T20:46:44.734Z,100.00
2019-04-27T20:49:15.706Z,100.00
2019-04-27T20:51:51.077Z,100.00
2019-04-27T20:54:22.387Z,100.00
2019-04-27T20:56:53.959Z,100.00
2019-04-27T20:59:22.936Z,100.00
2019-04-27T21:01:52.258Z,100.00
2019-04-27T21:04:25.996Z,100.00
2019-04-27T21:06:56.900Z,100.00
2019-04-27T21:09:26.302Z,100.00
2019-04-27T21:11:55.694Z,100.00
2019-04-27T21:14:25.407Z,100.00
2019-04-27T21:16:54.759Z,100.00
2019-04-27T21:19:24.091Z,100.00
2019-04-27T21:21:53.570Z,100.00
2019-04-27T21:24:22.974Z,100.00
2019-04-27T21:26:52.572Z,100.00
2019-04-27T21:29:22.071Z,100.00
2019-04-27T21:31:52.005Z,100.00
2019-04-27T21:34:21.443Z,100.00
2019-04-27T21:36:51.136Z,100.00
2019-04-27T21:39:21.705Z,100.00
2019-04-27T21:41:51.869Z,100.00
2019-04-27T21:44:21.910Z,100.00
2019-04-27T21:46:51.883Z,100.00
2019-04-27T21:49:22.967Z,100.00
2019-04-27T21:52:03.488Z,100.00
2019-04-27T21:54:37.585Z,100.00
2019-04-27T21:57:06.986Z,100.00
2019-04-27T21:59:36.377Z,100.00
2019-04-27T22:02:07.436Z,100.00
2019-04-27T22:04:37.262Z,100.00
2019-04-27T22:07:06.955Z,100.00
2019-04-27T22:09:36.342Z,100.00
2019-04-27T22:12:05.746Z,100.00
2019-04-27T22:14:35.362Z,100.00
2019-04-27T22:17:04.824Z,100.00
2019-04-27T22:19:34.220Z,100.00
2019-04-27T22:22:05.236Z,100.00
2019-04-27T22:24:36.505Z,100.00
2019-04-27T22:27:05.911Z,100.00
2019-04-27T22:29:35.302Z,100.00
2019-04-27T22:32:04.762Z,100.00
2019-04-27T22:34:34.117Z,100.00
2019-04-27T22:37:03.834Z,100.00
2019-04-27T22:39:34.821Z,100.00
2019-04-27T22:42:05.850Z,100.00
2019-04-27T22:44:45.571Z,100.00
2019-04-27T22:47:14.892Z,100.00
2019-04-27T22:49:44.221Z,100.00
2019-04-27T22:52:13.939Z,100.00
2019-04-27T22:54:43.269Z,100.00
2019-04-27T22:57:14.255Z,100.00
2019-04-27T22:59:50.750Z,100.00
2019-04-27T23:02:24.703Z,100.00
2019-04-27T23:04:55.664Z,100.00
2019-04-27T23:07:25.307Z,100.00
2019-04-27T23:09:54.630Z,100.00
2019-04-27T23:12:24.025Z,100.00
2019-04-27T23:14:53.391Z,100.00
2019-04-27T23:17:42.461Z,100.00
2019-04-27T23:20:11.946Z,100.00
2019-04-27T23:22:41.276Z,100.00
2019-04-27T23:25:11.334Z,100.00
2019-04-27T23:27:41.102Z,100.00
2019-04-27T23:30:11.415Z,100.00
2019-04-27T23:32:42.371Z,100.00
2019-04-27T23:35:11.762Z,100.00
2019-04-27T23:37:41.135Z,100.00
2019-04-27T23:40:11.640Z,100.00
2019-04-27T23:42:41.685Z,100.00
2019-04-27T23:45:11.521Z,100.00
2019-04-27T23:47:40.855Z,100.00
2019-04-27T23:50:10.925Z,100.00
2019-04-27T23:53:01.965Z,100.00
2019-04-27T23:55:35.882Z,100.00
2019-04-27T23:58:05.387Z,100.00
